sensor_id;sensor_type;location;lat;lon;timestamp;temperature;humidity
73137;DHT22;67767;45.636;11.756;2024-03-25T00:00:13;8.50;80.90
73137;DHT22;67767;45.636;11.756;2024-03-25T00:02:39;8.70;81.00
73137;DHT22;67767;45.636;11.756;2024-03-25T00:05:06;8.70;81.10
73137;DHT22;67767;45.636;11.756;2024-03-25T00:07:35;8.80;81.00
73137;DHT22;67767;45.636;11.756;2024-03-25T00:10:01;8.70;80.80
73137;DHT22;67767;45.636;11.756;2024-03-25T00:12:27;8.60;81.20
73137;DHT22;67767;45.636;11.756;2024-03-25T00:14:52;8.60;81.50
73137;DHT22;67767;45.636;11.756;2024-03-25T00:17:18;8.60;81.40
73137;DHT22;67767;45.636;11.756;2024-03-25T00:19:48;8.60;81.00
73137;DHT22;67767;45.636;11.756;2024-03-25T00:22:20;8.60;81.00
73137;DHT22;67767;45.636;11.756;2024-03-25T00:24:46;8.60;81.20
73137;DHT22;67767;45.636;11.756;2024-03-25T00:27:15;8.50;81.40
73137;DHT22;67767;45.636;11.756;2024-03-25T00:29:41;8.50;81.50
73137;DHT22;67767;45.636;11.756;2024-03-25T00:32:07;8.20;82.00
73137;DHT22;67767;45.636;11.756;2024-03-25T00:34:33;8.20;81.90
73137;DHT22;67767;45.636;11.756;2024-03-25T00:36:59;8.10;82.00
73137;DHT22;67767;45.636;11.756;2024-03-25T00:39:26;7.90;82.30
73137;DHT22;67767;45.636;11.756;2024-03-25T00:41:52;8.00;82.20
73137;DHT22;67767;45.636;11.756;2024-03-25T00:44:17;7.90;81.70
73137;DHT22;67767;45.636;11.756;2024-03-25T00:46:43;8.00;82.00
73137;DHT22;67767;45.636;11.756;2024-03-25T00:49:09;8.10;81.80
73137;DHT22;67767;45.636;11.756;2024-03-25T00:51:35;8.10;81.30
73137;DHT22;67767;45.636;11.756;2024-03-25T00:54:02;8.20;81.40
73137;DHT22;67767;45.636;11.756;2024-03-25T00:56:28;8.20;81.10
73137;DHT22;67767;45.636;11.756;2024-03-25T00:58:55;8.30;81.10
73137;DHT22;67767;45.636;11.756;2024-03-25T01:01:22;8.30;81.00
73137;DHT22;67767;45.636;11.756;2024-03-25T01:03:48;8.30;81.00
73137;DHT22;67767;45.636;11.756;2024-03-25T01:06:14;8.10;81.10
73137;DHT22;67767;45.636;11.756;2024-03-25T01:08:39;8.20;81.00
73137;DHT22;67767;45.636;11.756;2024-03-25T01:11:05;8.30;80.90
73137;DHT22;67767;45.636;11.756;2024-03-25T01:13:31;8.30;81.10
73137;DHT22;67767;45.636;11.756;2024-03-25T01:15:57;8.10;81.30
73137;DHT22;67767;45.636;11.756;2024-03-25T01:18:22;8.00;81.30
73137;DHT22;67767;45.636;11.756;2024-03-25T01:20:48;7.90;81.40
73137;DHT22;67767;45.636;11.756;2024-03-25T01:23:15;8.00;81.30
73137;DHT22;67767;45.636;11.756;2024-03-25T01:25:41;7.70;81.60
73137;DHT22;67767;45.636;11.756;2024-03-25T01:28:06;7.80;81.70
73137;DHT22;67767;45.636;11.756;2024-03-25T01:30:32;7.60;81.80
73137;DHT22;67767;45.636;11.756;2024-03-25T01:33:01;7.70;81.80
73137;DHT22;67767;45.636;11.756;2024-03-25T01:35:26;7.70;81.90
73137;DHT22;67767;45.636;11.756;2024-03-25T01:37:52;7.80;81.80
73137;DHT22;67767;45.636;11.756;2024-03-25T01:40:18;7.60;82.00
73137;DHT22;67767;45.636;11.756;2024-03-25T01:42:54;7.50;82.10
73137;DHT22;67767;45.636;11.756;2024-03-25T01:45:20;7.40;82.40
73137;DHT22;67767;45.636;11.756;2024-03-25T01:47:45;7.30;82.30
73137;DHT22;67767;45.636;11.756;2024-03-25T01:50:11;7.20;82.50
73137;DHT22;67767;45.636;11.756;2024-03-25T01:52:37;7.30;82.70
73137;DHT22;67767;45.636;11.756;2024-03-25T01:55:03;7.20;82.70
73137;DHT22;67767;45.636;11.756;2024-03-25T01:57:30;7.20;82.60
73137;DHT22;67767;45.636;11.756;2024-03-25T01:59:56;7.40;82.70
73137;DHT22;67767;45.636;11.756;2024-03-25T02:02:23;7.50;82.60
73137;DHT22;67767;45.636;11.756;2024-03-25T02:04:49;7.40;82.30
73137;DHT22;67767;45.636;11.756;2024-03-25T02:07:16;7.40;82.40
73137;DHT22;67767;45.636;11.756;2024-03-25T02:09:42;7.20;82.60
73137;DHT22;67767;45.636;11.756;2024-03-25T02:12:08;7.10;82.40
73137;DHT22;67767;45.636;11.756;2024-03-25T02:14:34;7.10;83.00
73137;DHT22;67767;45.636;11.756;2024-03-25T02:17:00;7.30;82.80
73137;DHT22;67767;45.636;11.756;2024-03-25T02:19:27;7.30;82.40
73137;DHT22;67767;45.636;11.756;2024-03-25T02:21:53;7.00;82.50
73137;DHT22;67767;45.636;11.756;2024-03-25T02:24:20;7.10;82.80
73137;DHT22;67767;45.636;11.756;2024-03-25T02:26:48;7.20;82.90
73137;DHT22;67767;45.636;11.756;2024-03-25T02:29:14;7.20;83.00
73137;DHT22;67767;45.636;11.756;2024-03-25T02:31:39;7.30;82.80
73137;DHT22;67767;45.636;11.756;2024-03-25T02:34:05;7.20;82.40
73137;DHT22;67767;45.636;11.756;2024-03-25T02:36:31;7.20;82.60
73137;DHT22;67767;45.636;11.756;2024-03-25T02:38:58;7.00;82.40
73137;DHT22;67767;45.636;11.756;2024-03-25T02:41:24;6.80;82.40
73137;DHT22;67767;45.636;11.756;2024-03-25T02:43:50;6.60;83.00
73137;DHT22;67767;45.636;11.756;2024-03-25T02:46:15;6.60;82.30
73137;DHT22;67767;45.636;11.756;2024-03-25T02:48:41;6.50;81.90
73137;DHT22;67767;45.636;11.756;2024-03-25T02:51:06;6.70;82.10
73137;DHT22;67767;45.636;11.756;2024-03-25T02:53:32;6.90;81.00
73137;DHT22;67767;45.636;11.756;2024-03-25T02:55:58;6.80;81.10
73137;DHT22;67767;45.636;11.756;2024-03-25T02:58:23;6.90;81.00
73137;DHT22;67767;45.636;11.756;2024-03-25T03:00:49;6.90;81.20
73137;DHT22;67767;45.636;11.756;2024-03-25T03:03:14;6.90;81.30
73137;DHT22;67767;45.636;11.756;2024-03-25T03:05:40;7.00;81.10
73137;DHT22;67767;45.636;11.756;2024-03-25T03:08:05;7.10;81.00
73137;DHT22;67767;45.636;11.756;2024-03-25T03:10:31;6.90;81.10
73137;DHT22;67767;45.636;11.756;2024-03-25T03:12:57;6.90;81.10
73137;DHT22;67767;45.636;11.756;2024-03-25T03:15:22;6.70;81.20
73137;DHT22;67767;45.636;11.756;2024-03-25T03:17:48;6.70;81.40
73137;DHT22;67767;45.636;11.756;2024-03-25T03:20:13;6.60;81.90
73137;DHT22;67767;45.636;11.756;2024-03-25T03:22:39;6.80;81.90
73137;DHT22;67767;45.636;11.756;2024-03-25T03:25:05;6.70;81.90
73137;DHT22;67767;45.636;11.756;2024-03-25T03:27:31;6.70;82.20
73137;DHT22;67767;45.636;11.756;2024-03-25T03:29:57;6.60;82.30
73137;DHT22;67767;45.636;11.756;2024-03-25T03:32:23;6.60;82.20
73137;DHT22;67767;45.636;11.756;2024-03-25T03:34:49;6.60;81.80
73137;DHT22;67767;45.636;11.756;2024-03-25T03:37:14;6.60;81.80
73137;DHT22;67767;45.636;11.756;2024-03-25T03:39:40;6.80;82.00
73137;DHT22;67767;45.636;11.756;2024-03-25T03:42:06;6.80;81.80
73137;DHT22;67767;45.636;11.756;2024-03-25T03:44:31;6.70;81.10
73137;DHT22;67767;45.636;11.756;2024-03-25T03:46:57;6.60;81.50
73137;DHT22;67767;45.636;11.756;2024-03-25T03:49:22;6.60;81.80
73137;DHT22;67767;45.636;11.756;2024-03-25T03:51:48;6.70;81.30
73137;DHT22;67767;45.636;11.756;2024-03-25T03:54:14;6.70;81.50
73137;DHT22;67767;45.636;11.756;2024-03-25T03:56:39;6.60;81.90
73137;DHT22;67767;45.636;11.756;2024-03-25T03:59:05;6.50;81.70
73137;DHT22;67767;45.636;11.756;2024-03-25T04:01:30;6.70;81.80
73137;DHT22;67767;45.636;11.756;2024-03-25T04:03:56;6.40;81.80
73137;DHT22;67767;45.636;11.756;2024-03-25T04:06:21;6.20;82.40
73137;DHT22;67767;45.636;11.756;2024-03-25T04:08:47;6.10;82.70
73137;DHT22;67767;45.636;11.756;2024-03-25T04:11:13;6.20;83.00
73137;DHT22;67767;45.636;11.756;2024-03-25T04:13:38;5.90;82.70
73137;DHT22;67767;45.636;11.756;2024-03-25T04:16:05;5.90;83.10
73137;DHT22;67767;45.636;11.756;2024-03-25T04:18:32;5.70;83.30
73137;DHT22;67767;45.636;11.756;2024-03-25T04:20:58;6.10;83.30
73137;DHT22;67767;45.636;11.756;2024-03-25T04:23:24;5.90;82.80
73137;DHT22;67767;45.636;11.756;2024-03-25T04:25:51;5.70;83.30
73137;DHT22;67767;45.636;11.756;2024-03-25T04:28:16;5.70;82.80
73137;DHT22;67767;45.636;11.756;2024-03-25T04:30:42;5.70;83.30
73137;DHT22;67767;45.636;11.756;2024-03-25T04:33:08;5.90;83.10
73137;DHT22;67767;45.636;11.756;2024-03-25T04:35:34;5.70;83.20
73137;DHT22;67767;45.636;11.756;2024-03-25T04:37:59;6.10;83.00
73137;DHT22;67767;45.636;11.756;2024-03-25T04:40:25;6.00;83.00
73137;DHT22;67767;45.636;11.756;2024-03-25T04:42:51;5.80;82.90
73137;DHT22;67767;45.636;11.756;2024-03-25T04:45:16;5.90;82.60
73137;DHT22;67767;45.636;11.756;2024-03-25T04:47:42;6.00;82.50
73137;DHT22;67767;45.636;11.756;2024-03-25T04:50:08;6.00;82.00
73137;DHT22;67767;45.636;11.756;2024-03-25T04:52:34;6.00;80.90
73137;DHT22;67767;45.636;11.756;2024-03-25T04:55:00;6.10;81.10
73137;DHT22;67767;45.636;11.756;2024-03-25T04:57:25;6.20;81.50
73137;DHT22;67767;45.636;11.756;2024-03-25T04:59:51;6.10;81.60
73137;DHT22;67767;45.636;11.756;2024-03-25T05:02:17;6.00;81.90
73137;DHT22;67767;45.636;11.756;2024-03-25T05:04:42;5.90;81.90
73137;DHT22;67767;45.636;11.756;2024-03-25T05:07:08;5.90;81.70
73137;DHT22;67767;45.636;11.756;2024-03-25T05:09:34;5.90;80.90
73137;DHT22;67767;45.636;11.756;2024-03-25T05:12:00;5.80;81.00
73137;DHT22;67767;45.636;11.756;2024-03-25T05:14:25;5.70;80.70
73137;DHT22;67767;45.636;11.756;2024-03-25T05:16:51;5.70;80.90
73137;DHT22;67767;45.636;11.756;2024-03-25T05:19:18;5.90;80.60
73137;DHT22;67767;45.636;11.756;2024-03-25T05:21:44;6.00;79.80
73137;DHT22;67767;45.636;11.756;2024-03-25T05:24:09;5.80;80.00
73137;DHT22;67767;45.636;11.756;2024-03-25T05:26:35;5.80;80.30
73137;DHT22;67767;45.636;11.756;2024-03-25T05:29:00;5.80;80.70
73137;DHT22;67767;45.636;11.756;2024-03-25T05:31:26;5.90;79.60
73137;DHT22;67767;45.636;11.756;2024-03-25T05:33:51;5.90;79.60
73137;DHT22;67767;45.636;11.756;2024-03-25T05:36:17;6.20;77.60
73137;DHT22;67767;45.636;11.756;2024-03-25T05:38:43;6.30;78.10
73137;DHT22;67767;45.636;11.756;2024-03-25T05:41:09;6.40;78.10
73137;DHT22;67767;45.636;11.756;2024-03-25T05:43:35;6.60;78.70
73137;DHT22;67767;45.636;11.756;2024-03-25T05:46:01;6.30;78.30
73137;DHT22;67767;45.636;11.756;2024-03-25T05:48:26;6.60;78.10
73137;DHT22;67767;45.636;11.756;2024-03-25T05:51:05;6.90;77.90
73137;DHT22;67767;45.636;11.756;2024-03-25T05:53:33;7.10;77.40
73137;DHT22;67767;45.636;11.756;2024-03-25T05:55:58;7.40;77.40
73137;DHT22;67767;45.636;11.756;2024-03-25T05:58:27;7.50;76.70
73137;DHT22;67767;45.636;11.756;2024-03-25T06:00:53;7.30;77.00
73137;DHT22;67767;45.636;11.756;2024-03-25T06:03:19;7.50;77.50
73137;DHT22;67767;45.636;11.756;2024-03-25T06:05:45;7.40;77.00
73137;DHT22;67767;45.636;11.756;2024-03-25T06:08:11;7.50;77.30
73137;DHT22;67767;45.636;11.756;2024-03-25T06:11:06;7.60;77.50
73137;DHT22;67767;45.636;11.756;2024-03-25T06:13:31;7.90;77.20
73137;DHT22;67767;45.636;11.756;2024-03-25T06:15:58;8.00;77.10
73137;DHT22;67767;45.636;11.756;2024-03-25T06:18:24;8.20;76.80
73137;DHT22;67767;45.636;11.756;2024-03-25T06:20:49;8.30;76.70
73137;DHT22;67767;45.636;11.756;2024-03-25T06:23:25;8.40;76.70
73137;DHT22;67767;45.636;11.756;2024-03-25T06:25:52;8.40;76.90
73137;DHT22;67767;45.636;11.756;2024-03-25T06:28:19;8.60;76.70
73137;DHT22;67767;45.636;11.756;2024-03-25T06:30:46;8.70;76.90
73137;DHT22;67767;45.636;11.756;2024-03-25T06:33:30;8.80;77.00
73137;DHT22;67767;45.636;11.756;2024-03-25T06:36:14;9.00;76.80
73137;DHT22;67767;45.636;11.756;2024-03-25T06:38:39;9.20;76.60
73137;DHT22;67767;45.636;11.756;2024-03-25T06:41:05;9.40;76.70
73137;DHT22;67767;45.636;11.756;2024-03-25T06:43:30;9.40;76.80
73137;DHT22;67767;45.636;11.756;2024-03-25T06:45:56;9.60;77.00
73137;DHT22;67767;45.636;11.756;2024-03-25T06:48:22;9.60;76.80
73137;DHT22;67767;45.636;11.756;2024-03-25T06:50:58;9.80;76.90
73137;DHT22;67767;45.636;11.756;2024-03-25T06:53:24;9.80;76.90
73137;DHT22;67767;45.636;11.756;2024-03-25T06:55:53;10.00;76.70
73137;DHT22;67767;45.636;11.756;2024-03-25T06:58:20;10.30;76.90
73137;DHT22;67767;45.636;11.756;2024-03-25T07:00:46;10.40;77.10
73137;DHT22;67767;45.636;11.756;2024-03-25T07:03:14;10.50;76.90
73137;DHT22;67767;45.636;11.756;2024-03-25T07:05:39;10.60;76.50
73137;DHT22;67767;45.636;11.756;2024-03-25T07:08:05;10.90;76.20
73137;DHT22;67767;45.636;11.756;2024-03-25T07:10:31;11.20;76.20
73137;DHT22;67767;45.636;11.756;2024-03-25T07:12:56;11.40;76.00
73137;DHT22;67767;45.636;11.756;2024-03-25T07:15:22;11.50;75.30
73137;DHT22;67767;45.636;11.756;2024-03-25T07:17:47;11.50;74.60
73137;DHT22;67767;45.636;11.756;2024-03-25T07:20:13;11.60;73.60
73137;DHT22;67767;45.636;11.756;2024-03-25T07:22:39;11.70;74.20
73137;DHT22;67767;45.636;11.756;2024-03-25T07:25:04;11.70;74.70
73137;DHT22;67767;45.636;11.756;2024-03-25T07:27:30;11.80;74.90
73137;DHT22;67767;45.636;11.756;2024-03-25T07:29:56;11.90;74.80
73137;DHT22;67767;45.636;11.756;2024-03-25T07:32:21;11.90;73.90
73137;DHT22;67767;45.636;11.756;2024-03-25T07:34:47;11.90;73.60
73137;DHT22;67767;45.636;11.756;2024-03-25T07:37:13;12.00;74.80
73137;DHT22;67767;45.636;11.756;2024-03-25T07:39:38;12.10;74.80
73137;DHT22;67767;45.636;11.756;2024-03-25T07:42:04;12.10;74.20
73137;DHT22;67767;45.636;11.756;2024-03-25T07:44:30;11.90;73.60
73137;DHT22;67767;45.636;11.756;2024-03-25T07:46:56;12.30;73.90
73137;DHT22;67767;45.636;11.756;2024-03-25T07:49:21;12.40;74.20
73137;DHT22;67767;45.636;11.756;2024-03-25T07:51:47;12.80;73.00
73137;DHT22;67767;45.636;11.756;2024-03-25T07:54:13;12.70;72.40
73137;DHT22;67767;45.636;11.756;2024-03-25T07:56:42;12.80;72.50
73137;DHT22;67767;45.636;11.756;2024-03-25T07:59:07;12.90;73.20
73137;DHT22;67767;45.636;11.756;2024-03-25T08:01:33;13.00;73.10
73137;DHT22;67767;45.636;11.756;2024-03-25T08:03:58;13.10;73.20
73137;DHT22;67767;45.636;11.756;2024-03-25T08:06:24;13.10;73.20
73137;DHT22;67767;45.636;11.756;2024-03-25T08:08:50;13.20;73.30
73137;DHT22;67767;45.636;11.756;2024-03-25T08:11:15;13.20;73.10
73137;DHT22;67767;45.636;11.756;2024-03-25T08:13:41;13.30;73.50
73137;DHT22;67767;45.636;11.756;2024-03-25T08:16:06;13.40;73.80
73137;DHT22;67767;45.636;11.756;2024-03-25T08:18:32;13.50;73.40
73137;DHT22;67767;45.636;11.756;2024-03-25T08:20:57;13.60;73.10
73137;DHT22;67767;45.636;11.756;2024-03-25T08:23:23;13.50;72.10
73137;DHT22;67767;45.636;11.756;2024-03-25T08:25:49;13.80;72.80
73137;DHT22;67767;45.636;11.756;2024-03-25T08:28:14;13.90;72.80
73137;DHT22;67767;45.636;11.756;2024-03-25T08:30:40;14.10;72.70
73137;DHT22;67767;45.636;11.756;2024-03-25T08:33:05;14.20;72.60
73137;DHT22;67767;45.636;11.756;2024-03-25T08:35:31;14.20;72.30
73137;DHT22;67767;45.636;11.756;2024-03-25T08:37:57;14.30;72.20
73137;DHT22;67767;45.636;11.756;2024-03-25T08:40:22;14.10;72.90
73137;DHT22;67767;45.636;11.756;2024-03-25T08:42:48;14.30;72.80
73137;DHT22;67767;45.636;11.756;2024-03-25T08:45:13;14.40;72.70
73137;DHT22;67767;45.636;11.756;2024-03-25T08:47:39;14.60;72.40
73137;DHT22;67767;45.636;11.756;2024-03-25T08:50:06;14.60;71.40
73137;DHT22;67767;45.636;11.756;2024-03-25T08:52:32;14.60;72.10
73137;DHT22;67767;45.636;11.756;2024-03-25T08:54:57;14.60;71.40
73137;DHT22;67767;45.636;11.756;2024-03-25T08:57:23;14.60;71.60
73137;DHT22;67767;45.636;11.756;2024-03-25T08:59:48;14.80;70.80
73137;DHT22;67767;45.636;11.756;2024-03-25T09:02:14;14.80;71.00
73137;DHT22;67767;45.636;11.756;2024-03-25T09:04:40;14.90;71.80
73137;DHT22;67767;45.636;11.756;2024-03-25T09:07:05;15.00;72.10
73137;DHT22;67767;45.636;11.756;2024-03-25T09:09:31;15.20;71.90
73137;DHT22;67767;45.636;11.756;2024-03-25T09:12:15;14.70;71.10
73137;DHT22;67767;45.636;11.756;2024-03-25T09:14:40;14.20;70.30
73137;DHT22;67767;45.636;11.756;2024-03-25T09:17:06;14.50;72.20
73137;DHT22;67767;45.636;11.756;2024-03-25T09:19:31;14.80;72.40
73137;DHT22;67767;45.636;11.756;2024-03-25T09:21:57;14.70;71.60
73137;DHT22;67767;45.636;11.756;2024-03-25T09:24:23;14.80;70.30
73137;DHT22;67767;45.636;11.756;2024-03-25T09:26:51;15.30;63.90
73137;DHT22;67767;45.636;11.756;2024-03-25T09:29:17;15.40;63.80
73137;DHT22;67767;45.636;11.756;2024-03-25T09:31:42;15.60;65.20
73137;DHT22;67767;45.636;11.756;2024-03-25T09:34:08;15.70;64.80
73137;DHT22;67767;45.636;11.756;2024-03-25T09:36:34;15.80;69.90
73137;DHT22;67767;45.636;11.756;2024-03-25T09:38:59;15.90;65.20
73137;DHT22;67767;45.636;11.756;2024-03-25T09:41:28;15.80;62.80
73137;DHT22;67767;45.636;11.756;2024-03-25T09:43:54;15.70;62.20
73137;DHT22;67767;45.636;11.756;2024-03-25T09:46:23;16.00;61.00
73137;DHT22;67767;45.636;11.756;2024-03-25T09:48:52;16.00;61.10
73137;DHT22;67767;45.636;11.756;2024-03-25T09:51:19;16.20;61.10
73137;DHT22;67767;45.636;11.756;2024-03-25T09:53:45;16.30;60.70
73137;DHT22;67767;45.636;11.756;2024-03-25T09:56:12;16.10;61.60
73137;DHT22;67767;45.636;11.756;2024-03-25T09:58:39;16.60;61.20
73137;DHT22;67767;45.636;11.756;2024-03-25T10:01:05;16.20;60.20
73137;DHT22;67767;45.636;11.756;2024-03-25T10:03:30;16.30;60.40
73137;DHT22;67767;45.636;11.756;2024-03-25T10:05:56;16.00;59.70
73137;DHT22;67767;45.636;11.756;2024-03-25T10:08:22;16.40;58.80
73137;DHT22;67767;45.636;11.756;2024-03-25T10:10:47;16.50;56.00
73137;DHT22;67767;45.636;11.756;2024-03-25T10:13:15;16.80;55.10
73137;DHT22;67767;45.636;11.756;2024-03-25T10:15:41;16.40;54.10
73137;DHT22;67767;45.636;11.756;2024-03-25T10:18:07;16.80;53.40
73137;DHT22;67767;45.636;11.756;2024-03-25T10:20:33;17.10;52.90
73137;DHT22;67767;45.636;11.756;2024-03-25T10:23:00;17.00;52.50
73137;DHT22;67767;45.636;11.756;2024-03-25T10:25:30;16.60;51.70
73137;DHT22;67767;45.636;11.756;2024-03-25T10:28:00;16.60;51.70
73137;DHT22;67767;45.636;11.756;2024-03-25T10:30:29;16.70;51.70
73137;DHT22;67767;45.636;11.756;2024-03-25T10:33:13;17.00;51.20
73137;DHT22;67767;45.636;11.756;2024-03-25T10:35:40;17.10;50.90
73137;DHT22;67767;45.636;11.756;2024-03-25T10:38:07;17.40;50.60
73137;DHT22;67767;45.636;11.756;2024-03-25T10:40:37;17.60;51.30
73137;DHT22;67767;45.636;11.756;2024-03-25T10:43:07;17.80;50.10
73137;DHT22;67767;45.636;11.756;2024-03-25T10:45:45;17.80;48.90
73137;DHT22;67767;45.636;11.756;2024-03-25T10:48:20;18.10;50.20
73137;DHT22;67767;45.636;11.756;2024-03-25T10:50:47;17.20;49.50
73137;DHT22;67767;45.636;11.756;2024-03-25T10:53:17;17.40;48.50
73137;DHT22;67767;45.636;11.756;2024-03-25T10:55:47;17.60;49.30
73137;DHT22;67767;45.636;11.756;2024-03-25T10:58:16;17.90;50.20
73137;DHT22;67767;45.636;11.756;2024-03-25T11:00:45;18.30;48.30
73137;DHT22;67767;45.636;11.756;2024-03-25T11:03:11;18.70;48.40
73137;DHT22;67767;45.636;11.756;2024-03-25T11:05:38;19.00;47.40
73137;DHT22;67767;45.636;11.756;2024-03-25T11:08:14;19.20;47.50
73137;DHT22;67767;45.636;11.756;2024-03-25T11:10:41;18.80;46.10
73137;DHT22;67767;45.636;11.756;2024-03-25T11:13:11;18.50;48.10
73137;DHT22;67767;45.636;11.756;2024-03-25T11:15:40;18.70;48.20
73137;DHT22;67767;45.636;11.756;2024-03-25T11:18:17;18.70;49.50
73137;DHT22;67767;45.636;11.756;2024-03-25T11:20:44;18.80;47.60
73137;DHT22;67767;45.636;11.756;2024-03-25T11:23:13;19.50;47.40
73137;DHT22;67767;45.636;11.756;2024-03-25T11:25:40;19.30;49.60
73137;DHT22;67767;45.636;11.756;2024-03-25T11:28:10;20.10;49.80
73137;DHT22;67767;45.636;11.756;2024-03-25T11:30:36;19.50;49.70
73137;DHT22;67767;45.636;11.756;2024-03-25T11:33:03;19.60;49.70
73137;DHT22;67767;45.636;11.756;2024-03-25T11:35:30;19.10;49.50
73137;DHT22;67767;45.636;11.756;2024-03-25T11:37:56;20.20;49.20
73137;DHT22;67767;45.636;11.756;2024-03-25T11:40:21;19.30;50.80
73137;DHT22;67767;45.636;11.756;2024-03-25T11:42:47;19.50;49.00
73137;DHT22;67767;45.636;11.756;2024-03-25T11:45:17;20.00;47.10
73137;DHT22;67767;45.636;11.756;2024-03-25T11:47:48;21.00;45.00
73137;DHT22;67767;45.636;11.756;2024-03-25T11:50:18;21.80;42.80
73137;DHT22;67767;45.636;11.756;2024-03-25T11:52:44;22.50;44.50
73137;DHT22;67767;45.636;11.756;2024-03-25T11:55:10;22.50;45.20
73137;DHT22;67767;45.636;11.756;2024-03-25T11:57:37;21.60;45.60
73137;DHT22;67767;45.636;11.756;2024-03-25T12:00:04;20.80;47.50
73137;DHT22;67767;45.636;11.756;2024-03-25T12:02:31;21.60;45.50
73137;DHT22;67767;45.636;11.756;2024-03-25T12:04:57;21.70;45.70
73137;DHT22;67767;45.636;11.756;2024-03-25T12:07:23;21.30;45.40
73137;DHT22;67767;45.636;11.756;2024-03-25T12:09:49;21.80;46.40
73137;DHT22;67767;45.636;11.756;2024-03-25T12:12:33;21.40;47.00
73137;DHT22;67767;45.636;11.756;2024-03-25T12:15:00;21.30;47.50
73137;DHT22;67767;45.636;11.756;2024-03-25T12:17:28;22.60;44.70
73137;DHT22;67767;45.636;11.756;2024-03-25T12:20:09;22.60;44.10
73137;DHT22;67767;45.636;11.756;2024-03-25T12:22:36;22.20;42.30
73137;DHT22;67767;45.636;11.756;2024-03-25T12:25:03;21.90;41.60
73137;DHT22;67767;45.636;11.756;2024-03-25T12:27:32;23.00;42.10
73137;DHT22;67767;45.636;11.756;2024-03-25T12:30:02;23.40;41.70
73137;DHT22;67767;45.636;11.756;2024-03-25T12:32:38;23.20;40.30
73137;DHT22;67767;45.636;11.756;2024-03-25T12:35:13;23.30;40.60
73137;DHT22;67767;45.636;11.756;2024-03-25T12:37:43;23.60;39.80
73137;DHT22;67767;45.636;11.756;2024-03-25T12:40:11;23.60;40.70
73137;DHT22;67767;45.636;11.756;2024-03-25T12:42:37;21.60;45.30
73137;DHT22;67767;45.636;11.756;2024-03-25T12:45:04;22.50;43.10
73137;DHT22;67767;45.636;11.756;2024-03-25T12:47:30;22.50;44.20
73137;DHT22;67767;45.636;11.756;2024-03-25T12:49:57;23.40;43.40
73137;DHT22;67767;45.636;11.756;2024-03-25T12:52:22;23.70;40.00
73137;DHT22;67767;45.636;11.756;2024-03-25T12:54:48;23.70;40.10
73137;DHT22;67767;45.636;11.756;2024-03-25T12:57:14;23.30;39.70
73137;DHT22;67767;45.636;11.756;2024-03-25T12:59:39;22.20;41.40
73137;DHT22;67767;45.636;11.756;2024-03-25T13:02:06;22.90;39.70
73137;DHT22;67767;45.636;11.756;2024-03-25T13:04:34;23.20;38.60
73137;DHT22;67767;45.636;11.756;2024-03-25T13:07:02;21.90;40.60
73137;DHT22;67767;45.636;11.756;2024-03-25T13:09:28;21.80;41.90
73137;DHT22;67767;45.636;11.756;2024-03-25T13:11:58;21.80;40.20
73137;DHT22;67767;45.636;11.756;2024-03-25T13:14:24;22.60;38.00
73137;DHT22;67767;45.636;11.756;2024-03-25T13:16:50;22.80;38.80
73137;DHT22;67767;45.636;11.756;2024-03-25T13:19:16;23.70;36.70
73137;DHT22;67767;45.636;11.756;2024-03-25T13:21:41;23.80;37.40
73137;DHT22;67767;45.636;11.756;2024-03-25T13:24:07;24.40;39.20
73137;DHT22;67767;45.636;11.756;2024-03-25T13:26:33;24.20;38.00
73137;DHT22;67767;45.636;11.756;2024-03-25T13:28:59;25.50;38.20
73137;DHT22;67767;45.636;11.756;2024-03-25T13:31:25;26.00;33.40
73137;DHT22;67767;45.636;11.756;2024-03-25T13:33:51;23.80;34.80
73137;DHT22;67767;45.636;11.756;2024-03-25T13:36:17;25.00;35.40
73137;DHT22;67767;45.636;11.756;2024-03-25T13:38:43;23.70;35.40
73137;DHT22;67767;45.636;11.756;2024-03-25T13:41:15;25.00;33.10
73137;DHT22;67767;45.636;11.756;2024-03-25T13:43:43;25.10;33.90
73137;DHT22;67767;45.636;11.756;2024-03-25T13:46:09;24.70;33.30
73137;DHT22;67767;45.636;11.756;2024-03-25T13:48:35;25.60;32.30
73137;DHT22;67767;45.636;11.756;2024-03-25T13:51:00;26.10;33.40
73137;DHT22;67767;45.636;11.756;2024-03-25T13:53:26;23.70;36.80
73137;DHT22;67767;45.636;11.756;2024-03-25T13:55:52;23.50;38.50
73137;DHT22;67767;45.636;11.756;2024-03-25T13:58:17;24.40;36.10
73137;DHT22;67767;45.636;11.756;2024-03-25T14:00:43;25.20;35.60
73137;DHT22;67767;45.636;11.756;2024-03-25T14:03:08;24.50;34.90
73137;DHT22;67767;45.636;11.756;2024-03-25T14:05:34;25.10;33.70
73137;DHT22;67767;45.636;11.756;2024-03-25T14:08:00;25.50;33.80
73137;DHT22;67767;45.636;11.756;2024-03-25T14:10:25;25.50;32.90
73137;DHT22;67767;45.636;11.756;2024-03-25T14:12:51;25.50;33.60
73137;DHT22;67767;45.636;11.756;2024-03-25T14:15:17;25.80;33.60
73137;DHT22;67767;45.636;11.756;2024-03-25T14:17:42;25.80;33.90
73137;DHT22;67767;45.636;11.756;2024-03-25T14:20:09;25.90;32.90
73137;DHT22;67767;45.636;11.756;2024-03-25T14:22:35;24.50;33.40
73137;DHT22;67767;45.636;11.756;2024-03-25T14:25:01;23.60;34.50
73137;DHT22;67767;45.636;11.756;2024-03-25T14:27:27;23.10;36.20
73137;DHT22;67767;45.636;11.756;2024-03-25T14:29:53;23.30;35.40
73137;DHT22;67767;45.636;11.756;2024-03-25T14:32:19;24.00;35.80
73137;DHT22;67767;45.636;11.756;2024-03-25T14:34:46;24.80;34.70
73137;DHT22;67767;45.636;11.756;2024-03-25T14:37:12;24.40;35.80
73137;DHT22;67767;45.636;11.756;2024-03-25T14:39:39;24.90;34.40
73137;DHT22;67767;45.636;11.756;2024-03-25T14:42:07;23.80;35.90
73137;DHT22;67767;45.636;11.756;2024-03-25T14:44:33;24.10;35.90
73137;DHT22;67767;45.636;11.756;2024-03-25T14:46:58;23.60;36.10
73137;DHT22;67767;45.636;11.756;2024-03-25T14:49:24;23.50;37.50
73137;DHT22;67767;45.636;11.756;2024-03-25T14:51:50;22.40;38.50
73137;DHT22;67767;45.636;11.756;2024-03-25T14:54:18;21.30;39.00
73137;DHT22;67767;45.636;11.756;2024-03-25T14:56:44;20.90;41.70
73137;DHT22;67767;45.636;11.756;2024-03-25T14:59:10;20.80;43.40
73137;DHT22;67767;45.636;11.756;2024-03-25T15:01:35;20.90;42.00
73137;DHT22;67767;45.636;11.756;2024-03-25T15:04:03;20.90;42.90
73137;DHT22;67767;45.636;11.756;2024-03-25T15:06:29;20.80;43.90
73137;DHT22;67767;45.636;11.756;2024-03-25T15:08:57;20.90;43.00
73137;DHT22;67767;45.636;11.756;2024-03-25T15:11:23;21.10;43.70
73137;DHT22;67767;45.636;11.756;2024-03-25T15:13:51;21.00;42.80
73137;DHT22;67767;45.636;11.756;2024-03-25T15:16:17;20.90;44.00
73137;DHT22;67767;45.636;11.756;2024-03-25T15:18:43;20.00;44.30